Time;durP1;ratioP1;P1;durP2;ratioP2;P2;SDS_P1;SDS_P2;PMS_P1;PMS_P2;Temp;Humidity;BMP_temperature;BMP_pressure;BME280_temperature;BME280_humidity;BME280_pressure;Samples;Min_cycle;Max_cycle;Signal;HPM_P1;HPM_P2
2022/05/07 04:00:58;;;;;;;13.63;8.65;;;6.30;99.90;;;;;;5761157;23;20042;-79
2022/05/07 04:03:25;;;;;;;15.02;8.70;;;6.40;99.90;;;;;;4997537;28;20050;-79
2022/05/07 04:05:51;;;;;;;11.35;8.48;;;6.40;99.90;;;;;;4998043;28;20035;-79
2022/05/07 04:08:17;;;;;;;11.30;8.90;;;6.40;99.90;;;;;;4998458;28;20567;-79
2022/05/07 04:10:43;;;;;;;11.85;8.82;;;6.40;99.90;;;;;;4998731;28;20082;-79
2022/05/07 04:13:10;;;;;;;13.68;8.75;;;6.40;99.90;;;;;;4997620;28;20519;-78
2022/05/07 04:15:39;;;;;;;11.80;9.18;;;6.30;99.90;;;;;;4995447;28;20039;-78
2022/05/07 04:18:07;;;;;;;14.27;9.20;;;6.40;99.90;;;;;;4995538;28;20113;-78
2022/05/07 04:20:34;;;;;;;10.88;8.13;;;6.40;99.90;;;;;;4998559;28;20463;-78
2022/05/07 04:23:00;;;;;;;11.07;8.55;;;6.50;99.90;;;;;;4996683;28;20070;-78
2022/05/07 04:25:26;;;;;;;11.43;8.30;;;6.50;99.90;;;;;;4996364;28;20054;-78
2022/05/07 04:27:52;;;;;;;11.48;8.90;;;6.50;99.90;;;;;;4994832;28;20082;-78
2022/05/07 04:30:18;;;;;;;11.90;8.18;;;6.50;99.90;;;;;;4996628;28;20500;-78
2022/05/07 04:32:43;;;;;;;10.68;7.85;;;6.50;99.90;;;;;;4994810;28;20126;-77
2022/05/07 04:35:09;;;;;;;10.35;7.70;;;6.60;99.90;;;;;;4996395;28;20110;-77
2022/05/07 04:37:34;;;;;;;9.00;7.20;;;6.60;99.90;;;;;;4996601;28;20062;-78
2022/05/07 04:40:00;;;;;;;11.40;7.97;;;6.50;99.90;;;;;;4994860;28;20037;-77
2022/05/07 04:42:25;;;;;;;10.00;7.80;;;6.50;99.90;;;;;;4994757;28;20081;-77
2022/05/07 04:44:51;;;;;;;12.25;8.07;;;6.50;99.90;;;;;;4994623;28;20038;-77
2022/05/07 04:47:17;;;;;;;10.43;7.47;;;6.60;99.90;;;;;;4996286;28;20050;-77
2022/05/07 04:49:43;;;;;;;11.88;7.65;;;6.60;99.90;;;;;;4996421;28;20043;-77
2022/05/07 04:52:10;;;;;;;10.77;7.80;;;6.60;99.90;;;;;;4994457;28;20092;-77
2022/05/07 04:54:36;;;;;;;11.77;8.23;;;6.60;99.90;;;;;;4994329;28;20039;-77
2022/05/07 04:57:02;;;;;;;11.18;7.70;;;6.70;99.90;;;;;;4996376;28;20505;-77
2022/05/07 04:59:27;;;;;;;12.05;8.18;;;6.70;99.90;;;;;;4995976;28;20105;-77
2022/05/07 05:01:53;;;;;;;11.20;8.30;;;6.70;99.90;;;;;;4995652;28;20047;-78
2022/05/07 05:04:19;;;;;;;11.02;7.75;;;6.80;99.90;;;;;;4996235;28;20118;-78
2022/05/07 05:06:44;;;;;;;10.98;7.68;;;6.80;99.90;;;;;;4994582;28;20078;-78
2022/05/07 05:09:12;;;;;;;12.13;8.23;;;6.80;99.90;;;;;;4995965;28;20039;-78
2022/05/07 05:11:38;;;;;;;9.60;7.85;;;6.90;99.90;;;;;;4995810;28;20122;-78
2022/05/07 05:16:49;;;;;;;8.05;6.95;;;7.00;99.90;;;;;;4996227;28;20511;-77
2022/05/07 05:19:14;;;;;;;11.30;7.82;;;7.10;99.90;;;;;;4994429;28;20035;-78
2022/05/07 05:21:41;;;;;;;10.25;8.18;;;7.20;99.90;;;;;;4995657;28;20451;-78
2022/05/07 05:24:07;;;;;;;11.18;8.25;;;7.30;99.90;;;;;;4995741;28;20038;-78
2022/05/07 05:26:32;;;;;;;12.45;8.80;;;7.40;99.90;;;;;;4995698;28;20062;-78
2022/05/07 05:28:58;;;;;;;11.75;8.57;;;7.50;99.90;;;;;;4995612;28;20521;-78
2022/05/07 05:31:24;;;;;;;11.55;8.77;;;7.60;99.90;;;;;;4994016;28;20066;-78
2022/05/07 05:33:49;;;;;;;12.85;8.45;;;7.70;99.90;;;;;;4994027;28;20038;-78
2022/05/07 05:36:15;;;;;;;11.38;8.20;;;7.80;99.90;;;;;;4994539;28;20035;-78
2022/05/07 05:38:40;;;;;;;11.00;8.90;;;7.90;99.90;;;;;;4994208;28;20035;-78
2022/05/07 05:41:06;;;;;;;15.68;9.23;;;8.00;99.90;;;;;;4997464;28;20381;-79
2022/05/07 05:43:32;;;;;;;10.98;8.73;;;8.10;99.90;;;;;;4999040;28;20063;-80
2022/05/07 05:45:58;;;;;;;13.02;8.30;;;8.20;99.90;;;;;;4998657;28;20179;-80
2022/05/07 05:48:27;;;;;;;11.23;8.02;;;8.30;99.90;;;;;;4999804;28;20621;-79
2022/05/07 05:50:52;;;;;;;13.50;8.70;;;8.40;99.90;;;;;;4999444;28;20110;-79
2022/05/07 05:53:18;;;;;;;14.80;8.60;;;8.50;99.90;;;;;;4998305;28;20083;-79
2022/05/07 05:55:43;;;;;;;10.88;7.43;;;8.60;99.90;;;;;;4998581;28;20094;-79
2022/05/07 05:58:09;;;;;;;11.43;7.35;;;8.70;99.90;;;;;;5000508;28;20038;-80
2022/05/07 06:00:34;;;;;;;11.32;7.22;;;8.80;99.90;;;;;;5000403;28;20130;-80
2022/05/07 06:03:10;;;;;;;11.00;7.50;;;9.00;99.90;;;;;;5001167;28;20038;-80
2022/05/07 06:05:36;;;;;;;10.13;7.00;;;9.00;99.90;;;;;;5000674;28;20514;-80
2022/05/07 06:08:01;;;;;;;8.63;6.82;;;9.20;99.90;;;;;;4999546;28;20122;-80
2022/05/07 06:10:27;;;;;;;9.18;6.72;;;9.20;99.90;;;;;;4998520;28;20041;-81
2022/05/07 06:12:53;;;;;;;8.05;6.70;;;9.40;99.90;;;;;;4996418;28;20480;-79
2022/05/07 06:15:19;;;;;;;9.70;6.47;;;9.40;99.90;;;;;;4998703;28;20031;-79
2022/05/07 06:17:44;;;;;;;10.70;6.68;;;9.50;99.90;;;;;;5000104;28;20472;-80
2022/05/07 06:20:10;;;;;;;9.82;6.68;;;9.70;99.90;;;;;;4997659;28;20035;-80
2022/05/07 06:22:36;;;;;;;9.02;6.75;;;9.70;99.90;;;;;;4998998;28;20042;-79
2022/05/07 06:27:45;;;;;;;9.10;6.85;;;9.90;99.90;;;;;;5001843;28;20039;-79
2022/05/07 06:30:11;;;;;;;9.10;6.90;;;10.00;99.90;;;;;;4998030;28;20485;-80
2022/05/07 06:32:40;;;;;;;9.48;7.28;;;10.10;99.90;;;;;;5000206;28;20042;-79
2022/05/07 06:35:06;;;;;;;8.60;7.22;;;10.20;99.90;;;;;;4998276;28;20130;-79
2022/05/07 06:37:34;;;;;;;8.65;7.20;;;10.30;99.90;;;;;;4998619;28;20041;-79
2022/05/07 06:40:00;;;;;;;8.25;6.38;;;10.40;99.90;;;;;;4997530;28;20122;-79
2022/05/07 06:42:26;;;;;;;9.25;7.20;;;10.50;99.90;;;;;;4996082;28;20098;-78
2022/05/07 06:44:51;;;;;;;7.63;6.65;;;10.60;99.90;;;;;;4996065;28;20038;-79
2022/05/07 06:47:17;;;;;;;7.38;6.60;;;10.70;99.90;;;;;;4996061;28;20497;-79
2022/05/07 06:49:43;;;;;;;9.85;6.68;;;10.90;99.90;;;;;;5006599;28;20046;-80
2022/05/07 06:52:10;;;;;;;7.50;6.70;;;11.00;99.90;;;;;;5014643;28;20086;-79
2022/05/07 06:54:35;;;;;;;7.35;6.55;;;11.10;99.90;;;;;;5014936;28;20043;-79
2022/05/07 06:57:03;;;;;;;10.38;6.72;;;11.30;99.90;;;;;;5005258;28;20042;-79
2022/05/07 06:59:31;;;;;;;9.10;6.80;;;11.40;99.90;;;;;;5000825;28;20484;-79
2022/05/07 07:01:57;;;;;;;9.57;7.20;;;11.60;99.90;;;;;;4998348;28;20134;-79
2022/05/07 07:04:23;;;;;;;8.10;6.68;;;11.70;99.90;;;;;;5000875;28;20037;-79
2022/05/07 07:06:50;;;;;;;8.60;6.50;;;11.90;99.90;;;;;;4998392;28;20034;-78
2022/05/07 07:09:16;;;;;;;6.85;5.70;;;12.10;99.90;;;;;;4998713;28;20480;-79
2022/05/07 07:11:41;;;;;;;7.30;6.30;;;12.30;99.90;;;;;;5000710;28;20035;-79
2022/05/07 07:14:07;;;;;;;7.70;6.47;;;12.50;99.90;;;;;;4998544;28;20042;-78
2022/05/07 07:16:33;;;;;;;8.20;6.50;;;12.80;99.90;;;;;;4998458;28;20026;-79
2022/05/07 07:18:58;;;;;;;7.50;6.20;;;12.90;99.90;;;;;;4997016;28;20533;-79
2022/05/07 07:21:24;;;;;;;9.35;6.40;;;13.20;99.90;;;;;;5000692;28;20404;-79
2022/05/07 07:23:50;;;;;;;9.05;6.22;;;13.40;99.90;;;;;;4998240;28;20038;-78
2022/05/07 07:26:15;;;;;;;7.18;5.75;;;13.70;99.90;;;;;;4999267;28;20027;-80
2022/05/07 07:28:41;;;;;;;6.82;6.13;;;14.00;99.90;;;;;;4998751;28;20043;-79
2022/05/07 07:31:10;;;;;;;7.28;6.15;;;14.20;99.90;;;;;;5000240;28;20392;-79
2022/05/07 07:33:38;;;;;;;8.20;6.20;;;14.30;99.90;;;;;;5000101;28;20038;-80
2022/05/07 07:36:11;;;;;;;7.22;5.80;;;14.50;99.90;;;;;;4998985;28;20520;-80
2022/05/07 07:38:37;;;;;;;7.53;5.70;;;14.80;99.90;;;;;;4997961;28;20094;-79
2022/05/07 07:41:04;;;;;;;7.60;6.13;;;15.10;99.90;;;;;;4997158;28;20101;-79
2022/05/07 07:43:30;;;;;;;8.77;6.20;;;15.30;99.90;;;;;;4998430;28;20034;-79
2022/05/07 07:48:41;;;;;;;8.70;5.85;;;15.70;99.90;;;;;;4998423;28;20047;-79
2022/05/07 07:51:07;;;;;;;7.25;5.07;;;16.00;99.90;;;;;;4996775;28;20054;-79
2022/05/07 07:53:33;;;;;;;6.65;5.88;;;16.20;99.90;;;;;;4996903;28;20114;-79
2022/05/07 07:55:59;;;;;;;7.55;5.95;;;16.40;99.90;;;;;;4997002;28;20030;-79
2022/05/07 07:58:25;;;;;;;6.80;5.70;;;16.50;99.90;;;;;;4997067;28;20045;-79
2022/05/07 08:00:51;;;;;;;6.82;5.30;;;16.70;99.90;;;;;;4998152;28;20400;-79
2022/05/07 08:03:18;;;;;;;6.93;5.93;;;16.90;99.90;;;;;;4998364;28;20587;-79
2022/05/07 08:05:46;;;;;;;7.47;5.22;;;17.00;99.90;;;;;;4998246;28;20114;-79
2022/05/07 08:13:44;;;;;;;7.22;5.95;;;17.40;99.90;;;;;;4998892;28;20065;-80
2022/05/07 08:16:11;;;;;;;5.57;4.97;;;17.60;99.90;;;;;;4997888;28;20030;-79
2022/05/07 08:18:37;;;;;;;8.75;5.10;;;17.80;99.90;;;;;;4997659;28;20548;-80
2022/05/07 08:21:05;;;;;;;8.02;4.70;;;18.00;99.80;;;;;;4997465;28;20489;-79
2022/05/07 08:23:31;;;;;;;8.52;4.47;;;18.00;98.50;;;;;;4997868;28;20094;-79
2022/05/07 08:25:56;;;;;;;6.80;4.90;;;18.10;98.20;;;;;;4996898;28;20121;-80
2022/05/07 08:28:24;;;;;;;7.63;4.95;;;18.10;96.80;;;;;;4996250;28;20049;-79
2022/05/07 08:30:50;;;;;;;7.28;5.10;;;18.30;96.60;;;;;;4997702;28;20108;-79
2022/05/07 08:33:19;;;;;;;5.15;4.60;;;18.50;96.60;;;;;;4997610;28;20038;-79
2022/05/07 08:35:45;;;;;;;6.60;4.50;;;18.90;97.90;;;;;;4996556;28;20151;-80
2022/05/07 08:38:11;;;;;;;5.47;4.10;;;18.80;96.40;;;;;;4996426;28;20046;-79
2022/05/07 08:40:38;;;;;;;4.82;3.92;;;18.90;96.00;;;;;;4996310;28;20463;-80
2022/05/07 08:43:05;;;;;;;4.85;3.90;;;19.00;94.60;;;;;;4997838;28;20095;-79
2022/05/07 08:45:31;;;;;;;5.43;3.78;;;19.10;93.30;;;;;;4998462;28;20042;-80
2022/05/07 08:47:56;;;;;;;4.55;4.00;;;19.20;93.00;;;;;;4998589;28;20046;-80
2022/05/07 08:50:23;;;;;;;5.18;3.58;;;19.40;92.40;;;;;;4998142;28;20041;-80
2022/05/07 08:52:52;;;;;;;3.80;3.28;;;19.20;92.90;;;;;;4996551;28;20034;-80
2022/05/07 08:55:19;;;;;;;5.60;3.03;;;19.00;93.50;;;;;;4996579;28;20035;-79
2022/05/07 08:57:47;;;;;;;4.88;3.20;;;19.20;93.00;;;;;;4996515;28;20035;-80
2022/05/07 09:00:15;;;;;;;6.40;3.55;;;19.50;91.90;;;;;;4996351;28;20087;-80
2022/05/07 09:02:44;;;;;;;5.90;3.17;;;19.40;93.70;;;;;;4996683;28;20041;-81
2022/05/07 09:05:10;;;;;;;5.88;2.70;;;19.60;90.90;;;;;;4996465;28;20039;-80
2022/05/07 09:07:39;;;;;;;5.43;2.60;;;19.70;88.50;;;;;;4996166;28;20042;-79
2022/05/07 09:10:13;;;;;;;5.60;2.55;;;19.60;91.00;;;;;;4996526;28;20121;-80
2022/05/07 09:12:39;;;;;;;3.80;2.38;;;19.80;90.10;;;;;;4997592;28;20875;-80
2022/05/07 09:15:08;;;;;;;2.47;1.85;;;20.00;90.00;;;;;;4998224;28;20035;-79
2022/05/07 09:17:36;;;;;;;4.13;1.90;;;20.20;82.90;;;;;;4996528;28;20073;-80
2022/05/07 09:20:15;;;;;;;5.63;2.38;;;20.40;82.30;;;;;;4997149;28;20607;-79
2022/05/07 09:22:55;;;;;;;4.15;2.20;;;20.30;79.50;;;;;;4996562;28;20035;-80
2022/05/07 09:25:25;;;;;;;3.63;2.03;;;20.50;80.20;;;;;;4996647;28;20090;-80
2022/05/07 09:27:54;;;;;;;2.85;2.08;;;20.30;82.60;;;;;;4997842;28;20046;-80
2022/05/07 09:30:25;;;;;;;4.13;1.85;;;20.50;79.90;;;;;;5008661;28;20083;-79
2022/05/07 09:32:55;;;;;;;3.60;1.88;;;20.50;81.40;;;;;;4999617;28;20034;-80
2022/05/07 09:38:14;;;;;;;3.72;2.33;;;21.30;79.20;;;;;;4997292;28;20035;-81
2022/05/07 09:40:42;;;;;;;3.50;2.08;;;20.90;75.00;;;;;;4995208;28;20031;-80
2022/05/07 09:43:12;;;;;;;3.33;1.67;;;20.90;75.00;;;;;;4996781;28;20480;-81
2022/05/07 09:45:44;;;;;;;3.15;2.03;;;20.70;74.00;;;;;;4996778;28;20027;-82
2022/05/07 09:48:12;;;;;;;2.53;1.63;;;20.70;73.70;;;;;;4998378;28;20039;-80
2022/05/07 09:50:47;;;;;;;2.45;1.90;;;20.80;74.60;;;;;;4996430;28;20468;-81
2022/05/07 09:58:45;;;;;;;2.50;1.42;;;21.50;71.20;;;;;;4997525;28;20504;-79
2022/05/07 10:01:42;;;;;;;3.60;1.70;;;21.00;70.60;;;;;;4994940;28;20031;-81
2022/05/07 10:04:50;;;;;;;2.70;1.98;;;21.10;71.90;;;;;;4995375;28;20136;-79
2022/05/07 10:07:55;;;;;;;2.88;1.60;;;21.10;73.50;;;;;;4997248;28;20035;-80
2022/05/07 10:10:36;;;;;;;4.18;1.90;;;21.70;71.30;;;;;;4997185;28;20182;-81
2022/05/07 10:13:05;;;;;;;2.58;1.50;;;22.00;68.60;;;;;;4997643;28;20629;-81
2022/05/07 10:15:34;;;;;;;3.53;1.58;;;21.80;68.80;;;;;;4996902;28;20477;-80
2022/05/07 10:18:07;;;;;;;2.17;1.75;;;21.30;68.80;;;;;;4996894;28;20062;-80
2022/05/07 10:20:43;;;;;;;3.60;1.80;;;20.90;71.00;;;;;;4997312;28;20050;-80
2022/05/07 10:23:32;;;;;;;3.65;1.50;;;21.50;70.20;;;;;;4996593;28;20114;-80
2022/05/07 10:25:58;;;;;;;2.95;1.70;;;22.00;70.30;;;;;;4998565;28;20042;-80
2022/05/07 10:28:42;;;;;;;2.50;1.58;;;22.00;66.00;;;;;;4998951;28;20981;-81
2022/05/07 10:31:23;;;;;;;2.55;1.60;;;21.30;67.20;;;;;;5000082;28;20038;-80
2022/05/07 10:33:50;;;;;;;3.35;1.60;;;21.50;68.20;;;;;;4998800;28;20057;-81
2022/05/07 10:36:16;;;;;;;3.70;1.70;;;21.10;72.10;;;;;;4999277;28;20505;-81
2022/05/07 10:38:44;;;;;;;6.55;2.20;;;20.80;71.00;;;;;;5000391;28;20548;-80
2022/05/07 10:41:15;;;;;;;3.50;1.90;;;21.10;70.00;;;;;;4998813;28;20071;-80
2022/05/07 10:44:06;;;;;;;2.70;1.80;;;21.50;67.60;;;;;;4999607;28;20042;-81
2022/05/07 10:46:43;;;;;;;2.03;1.80;;;21.70;68.20;;;;;;4998974;28;20042;-81
2022/05/07 10:49:09;;;;;;;2.20;1.83;;;22.10;66.50;;;;;;5000200;28;20043;-81
2022/05/07 10:51:50;;;;;;;2.15;1.65;;;21.90;68.80;;;;;;5000277;28;20126;-80
2022/05/07 10:54:21;;;;;;;3.58;2.08;;;21.50;66.60;;;;;;5000560;28;20113;-81
2022/05/07 10:56:58;;;;;;;3.63;2.50;;;21.10;66.10;;;;;;4998459;28;20042;-80
2022/05/07 10:59:29;;;;;;;3.83;1.80;;;20.50;68.30;;;;;;4999615;28;20035;-81
2022/05/07 11:02:06;;;;;;;2.58;1.63;;;20.20;71.90;;;;;;4998895;28;20042;-81
2022/05/07 11:04:41;;;;;;;2.50;1.77;;;20.80;69.10;;;;;;4999963;28;20039;-81
2022/05/07 11:07:07;;;;;;;2.83;2.00;;;21.20;68.10;;;;;;5000547;28;20034;-81
2022/05/07 11:09:32;;;;;;;4.47;2.42;;;21.30;67.90;;;;;;5000791;28;20130;-82
2022/05/07 11:11:58;;;;;;;3.55;1.85;;;21.00;70.10;;;;;;4999554;28;20046;-81
2022/05/07 11:14:32;;;;;;;2.83;1.70;;;20.70;68.50;;;;;;4997796;28;20038;-79
2022/05/07 11:17:02;;;;;;;6.43;2.88;;;20.40;73.60;;;;;;5003357;28;20031;-81
2022/05/07 11:19:30;;;;;;;2.95;1.75;;;21.00;69.90;;;;;;4997991;28;20568;-80
2022/05/07 11:21:59;;;;;;;5.72;1.77;;;22.00;70.10;;;;;;4997945;28;20035;-80
2022/05/07 11:24:26;;;;;;;2.08;1.60;;;22.50;67.00;;;;;;5002451;28;20031;-80
2022/05/07 11:27:11;;;;;;;2.92;2.10;;;22.60;66.30;;;;;;5001742;28;20041;-80
2022/05/07 11:29:36;;;;;;;2.92;1.73;;;22.60;64.50;;;;;;5003545;28;20842;-80
2022/05/07 11:32:08;;;;;;;5.50;2.83;;;23.50;62.30;;;;;;5003606;28;20505;-80
2022/05/07 11:34:38;;;;;;;4.80;2.20;;;23.30;66.90;;;;;;5002193;28;20058;-79
2022/05/07 11:37:21;;;;;;;3.15;1.60;;;23.60;67.20;;;;;;5002823;28;20114;-81
2022/05/07 11:39:47;;;;;;;3.83;3.00;;;23.70;60.10;;;;;;5003875;28;20105;-82
2022/05/07 11:42:35;;;;;;;3.80;2.55;;;23.50;67.10;;;;;;5004829;28;20046;-80
2022/05/07 11:45:37;;;;;;;4.53;2.40;;;22.90;62.60;;;;;;5004175;28;20568;-81
2022/05/07 11:48:09;;;;;;;3.55;1.85;;;22.80;61.30;;;;;;5003162;28;20058;-81
2022/05/07 11:50:41;;;;;;;4.22;2.05;;;22.70;64.60;;;;;;5004030;28;20034;-81
2022/05/07 11:53:14;;;;;;;2.65;2.05;;;22.40;67.20;;;;;;5003041;28;20058;-80
2022/05/07 11:55:41;;;;;;;4.70;2.00;;;22.80;66.10;;;;;;5004511;28;20038;-80
2022/05/07 11:58:20;;;;;;;4.35;1.70;;;23.10;64.80;;;;;;5007394;28;20480;-80
2022/05/07 12:00:47;;;;;;;4.53;1.60;;;23.60;66.30;;;;;;5003806;28;20182;-80
2022/05/07 12:03:17;;;;;;;2.95;1.67;;;24.30;61.60;;;;;;5005009;28;20560;-80
2022/05/07 12:05:45;;;;;;;1.63;1.48;;;24.70;61.70;;;;;;5006782;28;20042;-80
2022/05/07 12:08:19;;;;;;;1.77;1.60;;;25.10;57.90;;;;;;5012294;28;20055;-81
2022/05/07 12:10:49;;;;;;;3.90;1.50;;;24.70;59.80;;;;;;5011015;28;20050;-82
2022/05/07 12:13:17;;;;;;;2.72;1.55;;;24.80;58.60;;;;;;5005271;28;20026;-82
2022/05/07 12:18:30;;;;;;;3.08;2.20;;;25.00;57.90;;;;;;5004351;28;20076;-82
2022/05/07 12:20:57;;;;;;;3.55;1.52;;;24.90;56.90;;;;;;5002727;28;20026;-81
2022/05/07 12:31:39;;;;;;;4.45;1.55;;;24.80;57.60;;;;;;5005337;28;20035;-82
2022/05/07 12:34:05;;;;;;;4.10;1.60;;;25.10;61.50;;;;;;5004589;28;20473;-81
2022/05/07 12:36:32;;;;;;;3.38;1.60;;;25.30;64.20;;;;;;5006524;28;20039;-81
2022/05/07 12:38:59;;;;;;;2.58;1.52;;;25.30;55.00;;;;;;5006490;28;20031;-82
2022/05/07 12:41:29;;;;;;;2.30;1.60;;;25.40;60.60;;;;;;5005453;28;20886;-82
2022/05/07 12:43:57;;;;;;;2.97;1.70;;;25.50;55.80;;;;;;5011558;28;20023;-81
2022/05/07 12:46:24;;;;;;;4.43;2.00;;;26.00;60.90;;;;;;5012725;28;20074;-80
2022/05/07 12:48:50;;;;;;;1.90;1.50;;;26.20;54.00;;;;;;5010494;28;20051;-82
2022/05/07 12:51:19;;;;;;;3.20;1.70;;;26.40;54.50;;;;;;5013406;28;20047;-82
2022/05/07 12:53:45;;;;;;;3.05;1.83;;;26.40;55.30;;;;;;5014881;28;20103;-82
2022/05/07 12:56:11;;;;;;;3.33;1.70;;;26.10;58.90;;;;;;5009853;28;20055;-82
2022/05/07 12:58:36;;;;;;;3.88;1.83;;;25.20;53.00;;;;;;5010073;28;20042;-81
2022/05/07 13:01:02;;;;;;;3.72;1.83;;;25.80;55.80;;;;;;5006906;28;20090;-83
2022/05/07 13:03:28;;;;;;;3.63;1.85;;;25.60;57.30;;;;;;5000032;28;20038;-80
2022/05/07 13:05:54;;;;;;;3.78;1.70;;;26.00;54.80;;;;;;5002611;28;20506;-82
2022/05/07 13:08:20;;;;;;;4.18;1.83;;;25.90;55.60;;;;;;5000913;28;20053;-82
2022/05/07 13:10:45;;;;;;;3.40;1.80;;;26.10;55.00;;;;;;4996865;28;20034;-82
2022/05/07 13:13:11;;;;;;;2.05;1.80;;;26.20;53.20;;;;;;4996671;28;20043;-81
2022/05/07 13:15:37;;;;;;;2.80;1.65;;;25.60;53.60;;;;;;4999111;28;20031;-81
2022/05/07 13:18:04;;;;;;;1.90;1.60;;;25.80;56.80;;;;;;4999529;28;20110;-80
2022/05/07 13:20:30;;;;;;;3.40;1.50;;;25.90;57.90;;;;;;4996427;28;20057;-81
2022/05/07 13:22:56;;;;;;;1.90;1.60;;;25.80;54.30;;;;;;4997733;28;20046;-81
2022/05/07 13:25:22;;;;;;;1.60;1.42;;;26.10;58.80;;;;;;4998174;28;20439;-82
2022/05/07 13:27:49;;;;;;;4.05;1.35;;;26.50;51.50;;;;;;4997284;28;20406;-82
2022/05/07 13:30:17;;;;;;;4.28;1.50;;;27.20;51.00;;;;;;4998522;28;20030;-81
2022/05/07 13:32:43;;;;;;;3.90;1.67;;;28.00;52.00;;;;;;4998628;28;20064;-81
2022/05/07 13:35:09;;;;;;;4.55;1.70;;;29.20;48.90;;;;;;4998296;28;20540;-84
2022/05/07 13:37:36;;;;;;;2.20;1.40;;;29.40;49.40;;;;;;5000479;28;20047;-83
2022/05/07 13:40:06;;;;;;;2.67;1.52;;;30.00;50.00;;;;;;5002871;28;20110;-81
2022/05/07 13:42:31;;;;;;;1.40;1.30;;;30.30;45.70;;;;;;5001499;28;20026;-82
2022/05/07 13:44:57;;;;;;;1.73;1.50;;;30.70;53.80;;;;;;5001575;28;20420;-79
2022/05/07 13:47:23;;;;;;;2.60;1.50;;;30.30;47.30;;;;;;5002511;28;20126;-79
2022/05/07 13:49:49;;;;;;;3.45;1.50;;;30.40;48.80;;;;;;5003194;28;20038;-79
2022/05/07 13:52:15;;;;;;;2.15;1.42;;;30.50;51.30;;;;;;5001458;28;20035;-79
2022/05/07 13:54:42;;;;;;;2.80;1.60;;;31.40;46.80;;;;;;5003276;28;20035;-80
2022/05/07 13:57:07;;;;;;;4.00;1.90;;;31.60;44.20;;;;;;5003699;28;20035;-79
2022/05/07 13:59:33;;;;;;;3.95;1.52;;;30.50;42.80;;;;;;5004799;28;20087;-80
2022/05/07 14:01:59;;;;;;;3.25;1.50;;;30.40;43.00;;;;;;5002667;28;20047;-80
2022/05/07 14:04:28;;;;;;;2.47;1.45;;;30.60;47.70;;;;;;5002323;28;20062;-80
2022/05/07 14:06:55;;;;;;;2.90;1.70;;;31.80;43.10;;;;;;5002084;28;20030;-83
2022/05/07 14:09:21;;;;;;;2.08;1.50;;;31.00;39.90;;;;;;5001721;28;20047;-81
2022/05/07 14:11:47;;;;;;;3.00;1.83;;;30.20;42.50;;;;;;5004406;28;20059;-81
2022/05/07 14:14:13;;;;;;;2.13;1.58;;;30.80;46.50;;;;;;5002975;28;20042;-82
2022/05/07 14:16:39;;;;;;;3.33;1.58;;;32.10;49.30;;;;;;5003018;28;20035;-81
2022/05/07 14:19:04;;;;;;;2.88;1.80;;;31.70;44.60;;;;;;5003500;28;20481;-82
2022/05/07 14:21:31;;;;;;;1.85;1.50;;;31.50;41.40;;;;;;5003350;28;20035;-81
2022/05/07 14:23:56;;;;;;;1.73;1.60;;;31.40;41.40;;;;;;5005139;28;20143;-82
2022/05/07 14:26:22;;;;;;;4.28;1.70;;;31.20;42.30;;;;;;5005881;28;20150;-82
2022/05/07 14:28:48;;;;;;;2.15;1.30;;;32.90;48.60;;;;;;5004474;28;20053;-81
2022/05/07 14:31:14;;;;;;;2.72;1.77;;;32.50;45.80;;;;;;5005688;28;20066;-80
2022/05/07 14:33:40;;;;;;;2.95;1.50;;;32.50;40.00;;;;;;5004927;28;20031;-80
2022/05/07 14:36:06;;;;;;;2.05;1.52;;;32.70;38.50;;;;;;5007692;28;20035;-80
2022/05/07 14:38:31;;;;;;;2.95;1.50;;;33.40;41.90;;;;;;5000307;28;20049;-81
2022/05/07 14:40:57;;;;;;;5.55;1.90;;;32.60;42.40;;;;;;4999715;28;20130;-81
2022/05/07 14:43:23;;;;;;;3.15;1.73;;;32.60;43.00;;;;;;5001545;28;20058;-81
2022/05/07 14:45:49;;;;;;;3.22;1.77;;;32.60;42.50;;;;;;5000092;28;20449;-80
2022/05/07 14:48:15;;;;;;;3.05;1.80;;;33.20;41.10;;;;;;5010146;28;20034;-82
2022/05/07 14:50:41;;;;;;;3.08;2.00;;;32.80;45.00;;;;;;5000401;28;20041;-82
2022/05/07 14:53:08;;;;;;;3.90;1.90;;;34.00;41.10;;;;;;4996684;28;20082;-82
2022/05/07 14:55:33;;;;;;;3.65;1.80;;;35.10;38.60;;;;;;4997821;28;20102;-82
2022/05/07 14:58:02;;;;;;;2.90;1.77;;;34.90;37.30;;;;;;4999630;28;20118;-82
2022/05/07 15:00:27;;;;;;;2.08;1.70;;;34.90;37.70;;;;;;4998500;28;20119;-81
2022/05/07 15:02:53;;;;;;;1.95;1.33;;;35.00;39.70;;;;;;4996107;28;20566;-81
2022/05/07 15:05:19;;;;;;;4.07;2.10;;;34.90;36.80;;;;;;4995964;28;20038;-82
2022/05/07 15:07:50;;;;;;;2.70;1.92;;;34.80;36.60;;;;;;4999498;28;20094;-84
2022/05/07 15:10:37;;;;;;;3.05;1.70;;;34.00;40.90;;;;;;5001680;28;20091;-82
2022/05/07 15:13:03;;;;;;;2.40;1.70;;;34.00;37.60;;;;;;5004029;28;20894;-82
2022/05/07 15:15:28;;;;;;;5.22;2.10;;;34.10;39.10;;;;;;5005044;28;20061;-82
2022/05/07 15:17:59;;;;;;;2.10;1.80;;;34.30;36.50;;;;;;5002012;28;20058;-83
2022/05/07 15:20:25;;;;;;;1.70;1.50;;;34.10;37.40;;;;;;5002589;28;20027;-82
2022/05/07 15:22:51;;;;;;;1.98;1.60;;;35.30;38.00;;;;;;5001603;28;20109;-82
2022/05/07 15:25:18;;;;;;;2.53;1.60;;;34.70;36.10;;;;;;5003144;28;20043;-82
2022/05/07 15:27:52;;;;;;;1.80;1.70;;;35.50;38.70;;;;;;5001671;28;20109;-82
2022/05/07 15:30:19;;;;;;;2.60;1.70;;;35.50;34.30;;;;;;5002836;28;20552;-82
2022/05/07 15:38:22;;;;;;;1.83;1.60;;;34.60;36.40;;;;;;5004435;28;20039;-82
2022/05/07 15:40:54;;;;;;;2.15;1.60;;;34.30;37.90;;;;;;5000849;28;20035;-83
2022/05/07 15:43:20;;;;;;;3.30;1.60;;;34.60;37.30;;;;;;5000889;28;20043;-82
2022/05/07 15:45:52;;;;;;;3.20;1.65;;;35.20;37.00;;;;;;5002242;28;20042;-84
2022/05/07 15:48:18;;;;;;;3.80;1.92;;;35.10;35.70;;;;;;5006343;28;20106;-80
2022/05/07 15:50:44;;;;;;;3.80;1.88;;;33.50;38.30;;;;;;5004857;28;20462;-82
2022/05/07 15:53:10;;;;;;;2.92;1.60;;;33.70;37.70;;;;;;5005837;28;20042;-80
2022/05/07 15:55:38;;;;;;;3.88;1.80;;;33.80;38.40;;;;;;5004918;28;20046;-81
2022/05/07 15:58:04;;;;;;;3.53;2.10;;;34.20;35.90;;;;;;5006673;28;20047;-81
2022/05/07 16:00:34;;;;;;;2.45;1.90;;;33.60;39.00;;;;;;5002712;28;20035;-83
2022/05/07 16:02:59;;;;;;;3.85;2.05;;;33.70;36.90;;;;;;5003833;28;20038;-83
2022/05/07 16:05:25;;;;;;;3.53;1.67;;;33.60;38.90;;;;;;5003897;28;20071;-81
2022/05/07 16:07:52;;;;;;;2.25;1.50;;;34.70;39.30;;;;;;5000868;28;20035;-81
2022/05/07 16:10:17;;;;;;;2.65;1.60;;;35.60;38.50;;;;;;5002612;28;20051;-81
2022/05/07 16:12:44;;;;;;;2.45;1.80;;;35.20;35.90;;;;;;4998183;28;20043;-82
2022/05/07 16:15:10;;;;;;;2.45;1.38;;;35.50;36.00;;;;;;4999953;28;20058;-81
2022/05/07 16:17:36;;;;;;;4.15;1.67;;;32.90;36.60;;;;;;5001953;28;20042;-81
2022/05/07 16:20:03;;;;;;;1.98;1.80;;;31.00;41.50;;;;;;5000923;28;20046;-81
2022/05/07 16:25:14;;;;;;;3.97;1.58;;;28.30;47.70;;;;;;5004164;28;20097;-81
2022/05/07 16:27:39;;;;;;;2.70;1.50;;;30.70;43.70;;;;;;5003836;28;20030;-80
2022/05/07 16:30:08;;;;;;;5.07;1.63;;;30.90;41.50;;;;;;5003065;28;20035;-81
2022/05/07 16:32:33;;;;;;;2.25;1.50;;;29.50;42.40;;;;;;5004249;28;20030;-80
2022/05/07 16:34:59;;;;;;;1.92;1.40;;;27.80;47.70;;;;;;5001855;28;20370;-80
2022/05/07 16:37:25;;;;;;;2.67;1.40;;;27.50;45.70;;;;;;5004114;28;20039;-80
2022/05/07 16:39:50;;;;;;;4.10;1.50;;;26.60;46.10;;;;;;5003465;28;20043;-80
2022/05/07 16:42:16;;;;;;;3.33;1.58;;;26.10;48.10;;;;;;5003835;28;20030;-80
2022/05/07 16:44:41;;;;;;;2.63;1.40;;;26.20;47.30;;;;;;5003508;28;20481;-80
2022/05/07 16:47:07;;;;;;;1.75;1.40;;;25.80;48.90;;;;;;5003529;28;20039;-81
2022/05/07 16:49:34;;;;;;;4.00;1.63;;;25.40;49.20;;;;;;5002193;28;20081;-81
2022/05/07 16:52:01;;;;;;;2.83;1.40;;;25.00;49.50;;;;;;5004197;28;20034;-81
2022/05/07 16:54:27;;;;;;;5.47;1.65;;;24.50;49.60;;;;;;5004451;28;20104;-82
2022/05/07 16:56:56;;;;;;;2.13;1.38;;;24.20;50.20;;;;;;5005384;28;20027;-81
2022/05/07 16:59:22;;;;;;;3.85;1.73;;;24.10;50.10;;;;;;5003810;28;20027;-83
2022/05/07 17:01:47;;;;;;;4.40;1.60;;;24.20;50.70;;;;;;5002844;28;20039;-81
2022/05/07 17:04:13;;;;;;;2.85;1.52;;;23.70;50.60;;;;;;4998603;28;20431;-81
2022/05/07 17:06:38;;;;;;;3.45;1.60;;;23.30;52.30;;;;;;4999084;28;20061;-81
2022/05/07 17:09:04;;;;;;;1.70;1.50;;;23.00;53.40;;;;;;4999078;28;20099;-81
2022/05/07 17:11:29;;;;;;;3.42;1.50;;;22.80;53.70;;;;;;4998707;28;20444;-80
2022/05/07 17:13:55;;;;;;;2.85;1.70;;;22.70;55.20;;;;;;4998729;28;20447;-81
2022/05/07 17:16:21;;;;;;;5.20;1.75;;;22.50;55.90;;;;;;4999707;28;20035;-81
2022/05/07 17:18:47;;;;;;;3.45;1.80;;;22.50;56.60;;;;;;4999320;28;20050;-81
2022/05/07 17:21:13;;;;;;;3.63;1.70;;;22.50;58.10;;;;;;4998644;28;20086;-81
2022/05/07 17:23:39;;;;;;;2.28;1.67;;;22.30;56.20;;;;;;5000088;28;20106;-82
2022/05/07 17:26:06;;;;;;;3.85;2.15;;;22.20;58.70;;;;;;5007085;28;20023;-81
2022/05/07 17:28:31;;;;;;;3.03;1.90;;;22.10;57.10;;;;;;5004991;28;20801;-82
2022/05/07 17:30:57;;;;;;;4.00;1.80;;;22.30;56.60;;;;;;4999120;28;20485;-81
2022/05/07 17:33:24;;;;;;;2.08;1.85;;;22.00;56.50;;;;;;5000354;28;20034;-81